Poolville, Texas
Current Conditions -  °F | °C
As of 9:35 AM on Thursday 30 Oct 2014 (Local Time) from KXBP Reporting Station
Clear Clear  
Wind Chill: 59°   Ceiling: Unl
Heat Index: 59°   Visibility: 10mi
Dew Point: 49°   Wind: 0mph
Humidity: 69%   Direction: NA
Pressure: 30.18"   Gusts: NA
Location:  32.97°N, 97.86°W
Report Text: KXBP 301435Z AUTO 00000KT 10SM CLR 15/09 A3018 RMK AO2 T01500093
Loading
Personal Weather Stations






























Interactive Weather Map
Tropical Storm Tracking
New forecast layout! Learn more

10-Day Weather Forecast

Advertisements
Track Severe Weather on mobile